Time;durP1;ratioP1;P1;durP2;ratioP2;P2;SDS_P1;SDS_P2;PMS_P1;PMS_P2;Temp;Humidity;BMP_temperature;BMP_pressure;BME280_temperature;BME280_humidity;BME280_pressure;Samples;Min_cycle;Max_cycle;Signal;HPM_P1;HPM_P2
2024/03/01 00:00:32;;;;;;;;;;;;;;;7.82;68.20;99844.38;6152667;23;20227;-77
2024/03/01 00:06:10;;;;;;;;;;;;;;;7.79;67.86;99842.94;6122273;23;19924;-77
2024/03/01 00:08:35;;;;;;;;;;;;;;;7.78;68.02;99843.13;6153169;23;19968;-76
2024/03/01 00:11:03;;;;;;;;;;;;;;;7.71;67.87;99830.56;6152402;23;19921;-75
2024/03/01 00:13:28;;;;;;;;;;;;;;;7.80;67.97;99830.38;6153237;23;19996;-76
2024/03/01 00:15:55;;;;;;;;;;;;;;;7.69;68.95;99821.91;6152101;23;19944;-75
2024/03/01 00:18:20;;;;;;;;;;;;;;;7.68;68.94;99822.94;6152786;23;19924;-76
2024/03/01 00:20:45;;;;;;;;;;;;;;;7.67;68.72;99821.28;6152732;23;19947;-77
2024/03/01 00:23:10;;;;;;;;;;;;;;;7.70;68.67;99815.53;6127428;23;19909;-77
2024/03/01 00:25:36;;;;;;;;;;;;;;;7.68;69.44;99817.56;6151682;23;19913;-77
2024/03/01 00:28:01;;;;;;;;;;;;;;;7.63;69.48;99805.84;6152719;23;19912;-77
2024/03/01 00:30:29;;;;;;;;;;;;;;;7.62;69.47;99799.63;6153316;23;19920;-77
2024/03/01 00:32:54;;;;;;;;;;;;;;;7.65;70.90;99807.25;6153360;23;19917;-77
2024/03/01 00:35:20;;;;;;;;;;;;;;;7.60;70.73;99799.00;6151047;23;19930;-77
2024/03/01 00:37:48;;;;;;;;;;;;;;;7.64;71.31;99805.63;6153932;23;19935;-76
2024/03/01 00:40:13;;;;;;;;;;;;;;;7.58;72.15;99801.91;6126047;23;19920;-76
2024/03/01 00:42:38;;;;;;;;;;;;;;;7.63;73.27;99800.47;6152135;23;20389;-76
2024/03/01 00:45:37;;;;;;;;;;;;;;;7.59;73.81;99786.63;6148668;23;19920;-77
2024/03/01 00:48:12;;;;;;;;;;;;;;;7.54;76.43;99781.09;6152536;23;19959;-77
2024/03/01 00:50:37;;;;;;;;;;;;;;;7.43;76.46;99783.31;6151610;23;19917;-78
2024/03/01 00:53:12;;;;;;;;;;;;;;;7.35;76.91;99786.19;6153931;23;19913;-78
2024/03/01 00:55:37;;;;;;;;;;;;;;;7.37;79.11;99788.66;6150374;23;19994;-76
2024/03/01 00:58:06;;;;;;;;;;;;;;;7.37;77.89;99792.19;6151876;23;19928;-76
2024/03/01 01:04:05;;;;;;;;;;;;;;;7.33;78.18;99798.97;6054058;23;20341;-76
2024/03/01 01:12:43;;;;;;;;;;;;;;;7.25;79.13;99777.72;6182093;23;19920;-78
2024/03/01 01:21:14;;;;;;;;;;;;;;;7.22;80.22;99772.78;6182931;23;19919;-77
2024/03/01 01:23:43;;;;;;;;;;;;;;;7.20;78.99;99767.63;6183248;23;19976;-77
2024/03/01 01:26:08;;;;;;;;;;;;;;;7.20;78.64;99761.44;6181606;23;19913;-77
2024/03/01 01:28:33;;;;;;;;;;;;;;;7.26;79.47;99756.13;6183218;23;20347;-77
2024/03/01 01:30:59;;;;;;;;;;;;;;;7.27;78.78;99756.94;6184342;23;20014;-76
2024/03/01 01:36:11;;;;;;;;;;;;;;;7.19;79.71;99754.44;6150096;23;19920;-76
2024/03/01 01:38:45;;;;;;;;;;;;;;;7.18;78.53;99752.78;6154031;23;19991;-77
2024/03/01 01:41:10;;;;;;;;;;;;;;;7.12;79.01;99752.56;6152737;23;20314;-76
2024/03/01 01:43:58;;;;;;;;;;;;;;;7.19;78.69;99755.25;6118600;23;20064;-75
2024/03/01 01:47:07;;;;;;;;;;;;;;;7.22;78.28;99743.34;6145063;23;19913;-77
2024/03/01 01:49:32;;;;;;;;;;;;;;;7.21;78.28;99739.81;6031125;23;20259;-76
2024/03/01 01:52:09;;;;;;;;;;;;;;;7.09;78.71;99742.25;6011155;23;19917;-76
2024/03/01 01:55:08;;;;;;;;;;;;;;;7.04;78.78;99730.50;6034049;23;19939;-77
2024/03/01 01:57:36;;;;;;;;;;;;;;;7.13;79.20;99732.81;6093025;23;19924;-76
2024/03/01 02:00:05;;;;;;;;;;;;;;;7.19;78.79;99730.34;6165410;23;19913;-76
2024/03/01 02:02:33;;;;;;;;;;;;;;;7.04;78.89;99731.34;6158736;23;19917;-78
2024/03/01 02:04:58;;;;;;;;;;;;;;;7.01;78.55;99726.41;6156196;23;19929;-76
2024/03/01 02:07:26;;;;;;;;;;;;;;;7.03;79.38;99726.19;6155930;23;19912;-78
2024/03/01 02:09:53;;;;;;;;;;;;;;;7.13;78.24;99719.44;6161068;23;19923;-77
2024/03/01 02:12:18;;;;;;;;;;;;;;;7.11;78.31;99715.31;6159138;23;19916;-76
2024/03/01 02:14:43;;;;;;;;;;;;;;;7.15;78.56;99721.06;6184159;23;19912;-77
2024/03/01 02:17:09;;;;;;;;;;;;;;;7.16;78.20;99714.69;6185964;23;19931;-77
2024/03/01 02:19:34;;;;;;;;;;;;;;;7.14;78.71;99717.59;6185887;23;19912;-77
2024/03/01 02:22:03;;;;;;;;;;;;;;;7.15;78.09;99707.69;6186901;23;19998;-77
2024/03/01 02:24:28;;;;;;;;;;;;;;;7.18;78.22;99709.97;6165803;23;19916;-77
2024/03/01 02:26:54;;;;;;;;;;;;;;;7.16;78.63;99701.31;6196448;23;20064;-77
2024/03/01 02:29:20;;;;;;;;;;;;;;;7.18;78.48;99691.22;6191314;23;19912;-77
2024/03/01 02:31:47;;;;;;;;;;;;;;;7.11;78.68;99694.72;6185252;23;19912;-77
2024/03/01 02:34:12;;;;;;;;;;;;;;;7.15;79.05;99694.31;6186240;23;19916;-76
2024/03/01 02:36:39;;;;;;;;;;;;;;;7.21;79.16;99685.47;6157472;23;20445;-77
2024/03/01 02:39:16;;;;;;;;;;;;;;;7.11;79.17;99681.34;6186417;23;19913;-77
2024/03/01 02:41:41;;;;;;;;;;;;;;;7.07;79.34;99676.59;6159605;23;20253;-77
2024/03/01 02:44:08;;;;;;;;;;;;;;;7.03;80.11;99678.88;6185275;23;19913;-74
2024/03/01 02:46:33;;;;;;;;;;;;;;;7.05;80.56;99678.66;6157157;23;19924;-77
2024/03/01 02:48:58;;;;;;;;;;;;;;;6.98;80.83;99674.09;6182827;23;19922;-77
2024/03/01 02:51:24;;;;;;;;;;;;;;;6.97;81.07;99668.97;6184806;23;20017;-78
2024/03/01 02:53:49;;;;;;;;;;;;;;;6.85;82.52;99676.75;6184376;23;19979;-78
2024/03/01 02:56:14;;;;;;;;;;;;;;;6.91;82.27;99669.75;6182634;23;19912;-77
2024/03/01 02:58:39;;;;;;;;;;;;;;;6.94;82.26;99662.16;6183801;23;19923;-77
2024/03/01 03:01:05;;;;;;;;;;;;;;;6.96;82.28;99665.47;6184345;23;19916;-78
2024/03/01 03:03:31;;;;;;;;;;;;;;;6.94;82.60;99650.63;6183223;23;19927;-76
2024/03/01 03:05:56;;;;;;;;;;;;;;;6.91;83.13;99649.19;6183206;23;20365;-77
2024/03/01 03:08:22;;;;;;;;;;;;;;;6.87;83.62;99647.94;6184426;23;19948;-77
2024/03/01 03:10:47;;;;;;;;;;;;;;;6.92;84.39;99653.53;6181823;23;19979;-77
2024/03/01 03:13:12;;;;;;;;;;;;;;;6.85;84.92;99641.97;6184076;23;19916;-77
2024/03/01 03:15:38;;;;;;;;;;;;;;;6.80;85.33;99649.75;6182385;23;19921;-77
2024/03/01 03:18:03;;;;;;;;;;;;;;;6.75;85.81;99647.69;6181742;23;19970;-77
2024/03/01 03:20:35;;;;;;;;;;;;;;;6.67;86.92;99655.94;6157515;23;19913;-77
2024/03/01 03:23:00;;;;;;;;;;;;;;;6.61;87.27;99654.88;6184339;23;19916;-77
2024/03/01 03:28:28;;;;;;;;;;;;;;;6.40;88.47;99633.63;6183816;23;19974;-77
2024/03/01 03:31:05;;;;;;;;;;;;;;;6.41;88.91;99644.09;6183491;23;19939;-75
2024/03/01 03:39:45;;;;;;;;;;;;;;;6.53;90.79;99637.13;6182202;23;19939;-76
2024/03/01 03:42:10;;;;;;;;;;;;;;;6.60;90.85;99634.50;6183251;23;19966;-76
2024/03/01 03:44:38;;;;;;;;;;;;;;;6.62;90.14;99631.63;6184348;23;19913;-76
2024/03/01 03:47:25;;;;;;;;;;;;;;;6.60;90.75;99639.03;6179159;23;20353;-77
2024/03/01 03:49:50;;;;;;;;;;;;;;;6.57;90.91;99626.88;6182529;23;20325;-77
2024/03/01 03:52:28;;;;;;;;;;;;;;;6.57;91.59;99634.06;6183245;23;19982;-76
2024/03/01 03:55:08;;;;;;;;;;;;;;;6.51;91.44;99638.38;6181999;23;19991;-77
2024/03/01 03:57:33;;;;;;;;;;;;;;;6.39;92.11;99646.13;6183085;23;19920;-77
2024/03/01 04:00:09;;;;;;;;;;;;;;;6.37;92.99;99656.19;6182727;23;19912;-78
2024/03/01 04:02:37;;;;;;;;;;;;;;;6.32;93.22;99647.97;6182505;23;19916;-77
2024/03/01 04:05:05;;;;;;;;;;;;;;;6.35;93.30;99650.25;6182849;23;20366;-77
2024/03/01 04:07:31;;;;;;;;;;;;;;;6.36;93.03;99654.56;6181464;23;19916;-77
2024/03/01 04:09:56;;;;;;;;;;;;;;;6.27;93.01;99647.75;6183030;23;19966;-77
2024/03/01 04:12:21;;;;;;;;;;;;;;;6.24;93.10;99645.47;6182945;23;19959;-78
2024/03/01 04:14:46;;;;;;;;;;;;;;;6.24;93.57;99640.94;6182667;23;19916;-77
2024/03/01 04:17:12;;;;;;;;;;;;;;;6.26;93.73;99641.59;6154094;23;19940;-77
2024/03/01 04:19:37;;;;;;;;;;;;;;;6.25;93.89;99649.78;6152574;23;19984;-77
2024/03/01 04:22:03;;;;;;;;;;;;;;;6.21;94.35;99631.47;6152602;23;19917;-77
2024/03/01 04:24:31;;;;;;;;;;;;;;;6.26;93.64;99632.72;6152982;23;20314;-77
2024/03/01 04:26:57;;;;;;;;;;;;;;;6.31;93.88;99646.31;6152824;23;20318;-77
2024/03/01 04:29:23;;;;;;;;;;;;;;;6.35;94.56;99650.25;6152894;23;19912;-76
2024/03/01 04:31:48;;;;;;;;;;;;;;;6.44;93.88;99643.69;6152970;23;19912;-75
2024/03/01 04:34:14;;;;;;;;;;;;;;;6.50;94.18;99650.09;6152696;23;20302;-75
2024/03/01 04:36:40;;;;;;;;;;;;;;;6.55;94.57;99653.00;6153611;23;19913;-75
2024/03/01 04:39:06;;;;;;;;;;;;;;;6.58;93.81;99659.78;6159093;23;19917;-77
2024/03/01 04:41:31;;;;;;;;;;;;;;;6.60;94.75;99655.06;6161533;23;19964;-76
2024/03/01 04:43:56;;;;;;;;;;;;;;;6.62;94.60;99653.81;6153917;23;19913;-76
2024/03/01 04:46:21;;;;;;;;;;;;;;;6.68;94.73;99654.91;6153587;23;19913;-76
2024/03/01 04:48:47;;;;;;;;;;;;;;;6.73;95.22;99647.06;6153617;23;19924;-76
2024/03/01 04:51:12;;;;;;;;;;;;;;;6.76;94.45;99665.41;6153394;23;20242;-76
2024/03/01 04:53:38;;;;;;;;;;;;;;;6.83;94.84;99660.91;6152612;23;19917;-76
2024/03/01 04:56:03;;;;;;;;;;;;;;;6.87;94.77;99655.97;6151325;23;20211;-76
2024/03/01 04:58:28;;;;;;;;;;;;;;;6.92;94.79;99658.03;6127498;23;19923;-77
2024/03/01 05:00:53;;;;;;;;;;;;;;;6.93;94.43;99668.56;6152315;23;19921;-76
2024/03/01 05:03:19;;;;;;;;;;;;;;;6.96;94.28;99664.63;6148249;23;19988;-76
2024/03/01 05:05:44;;;;;;;;;;;;;;;6.97;94.23;99661.75;6153873;23;19975;-76
2024/03/01 05:08:10;;;;;;;;;;;;;;;6.99;94.71;99669.59;6164881;23;19932;-74
2024/03/01 05:10:36;;;;;;;;;;;;;;;6.98;94.34;99663.38;6158553;23;19991;-73
2024/03/01 05:13:01;;;;;;;;;;;;;;;6.98;94.30;99663.38;6154185;23;19951;-73
2024/03/01 05:15:26;;;;;;;;;;;;;;;6.97;94.10;99664.41;6151533;23;19917;-74
2024/03/01 05:17:51;;;;;;;;;;;;;;;7.00;94.89;99675.75;6151393;23;19916;-73
2024/03/01 05:20:17;;;;;;;;;;;;;;;6.98;94.71;99676.78;6152489;23;19979;-74
2024/03/01 05:22:45;;;;;;;;;;;;;;;7.03;95.14;99676.19;6152449;23;19949;-74
2024/03/01 05:25:16;;;;;;;;;;;;;;;7.04;95.05;99677.00;6151236;23;19912;-74
2024/03/01 05:27:48;;;;;;;;;;;;;;;7.06;95.72;99688.31;6153113;23;19971;-73
2024/03/01 05:30:15;;;;;;;;;;;;;;;7.09;96.21;99691.41;6152410;23;19932;-73
2024/03/01 05:32:40;;;;;;;;;;;;;;;7.12;96.37;99696.38;6151907;23;19913;-74
2024/03/01 05:35:07;;;;;;;;;;;;;;;7.07;98.04;99712.19;6164059;23;19920;-74
2024/03/01 05:37:33;;;;;;;;;;;;;;;7.02;98.01;99706.66;6159075;23;19920;-74
2024/03/01 05:39:58;;;;;;;;;;;;;;;7.02;99.66;99706.66;6155217;23;19916;-74
2024/03/01 05:42:24;;;;;;;;;;;;;;;7.00;100.00;99711.38;6156551;23;19951;-74
2024/03/01 05:44:49;;;;;;;;;;;;;;;6.97;100.00;99720.59;6155090;23;19913;-73
2024/03/01 05:47:14;;;;;;;;;;;;;;;6.94;100.00;99726.38;6155958;23;20379;-74
2024/03/01 05:49:40;;;;;;;;;;;;;;;6.85;100.00;99716.06;6156812;23;20542;-74
2024/03/01 05:52:05;;;;;;;;;;;;;;;6.85;100.00;99732.91;6155165;23;19921;-73
2024/03/01 05:54:31;;;;;;;;;;;;;;;6.75;100.00;99727.94;6156189;23;20348;-74
2024/03/01 05:56:56;;;;;;;;;;;;;;;6.70;100.00;99714.38;6156428;23;19943;-73
2024/03/01 05:59:22;;;;;;;;;;;;;;;6.75;100.00;99743.19;6159722;23;19924;-72
2024/03/01 06:01:47;;;;;;;;;;;;;;;6.69;100.00;99734.09;6167415;23;19983;-74
2024/03/01 06:04:13;;;;;;;;;;;;;;;6.64;100.00;99734.69;6164931;23;19955;-74
2024/03/01 06:06:38;;;;;;;;;;;;;;;6.55;100.00;99745.75;6156222;23;19913;-74
2024/03/01 06:09:06;;;;;;;;;;;;;;;6.57;100.00;99765.09;6156509;23;20012;-74
2024/03/01 06:11:31;;;;;;;;;;;;;;;6.56;100.00;99766.97;6157134;23;19916;-73
2024/03/01 06:13:57;;;;;;;;;;;;;;;6.58;100.00;99772.09;6156899;23;19913;-74
2024/03/01 06:16:22;;;;;;;;;;;;;;;6.51;100.00;99767.56;6156490;23;19924;-73
2024/03/01 06:18:47;;;;;;;;;;;;;;;6.47;100.00;99773.47;6154907;23;19917;-73
2024/03/01 06:21:19;;;;;;;;;;;;;;;6.27;100.00;99778.69;6154383;23;20330;-73
2024/03/01 06:23:44;;;;;;;;;;;;;;;6.39;100.00;99784.34;6154347;23;19916;-73
2024/03/01 06:26:13;;;;;;;;;;;;;;;6.25;100.00;99780.72;6154650;23;19956;-72
2024/03/01 06:28:38;;;;;;;;;;;;;;;6.09;100.00;99797.91;6153457;23;19932;-73
2024/03/01 06:31:03;;;;;;;;;;;;;;;5.98;100.00;99799.22;6155182;23;19919;-74
2024/03/01 06:33:29;;;;;;;;;;;;;;;5.70;100.00;99806.16;6154641;23;19913;-74
2024/03/01 06:35:54;;;;;;;;;;;;;;;5.66;100.00;99802.22;6154559;23;20062;-74
2024/03/01 06:38:19;;;;;;;;;;;;;;;5.80;100.00;99810.34;6154123;23;19995;-74
2024/03/01 06:40:45;;;;;;;;;;;;;;;5.76;100.00;99816.06;6154299;23;19912;-72
2024/03/01 06:43:10;;;;;;;;;;;;;;;5.55;100.00;99816.09;6153820;23;20210;-73
2024/03/01 06:45:35;;;;;;;;;;;;;;;5.52;100.00;99816.47;6154350;23;19924;-74
2024/03/01 06:48:04;;;;;;;;;;;;;;;5.49;100.00;99825.66;6153240;23;19920;-73
2024/03/01 06:50:29;;;;;;;;;;;;;;;5.28;100.00;99829.97;6155023;23;20682;-73
2024/03/01 06:52:54;;;;;;;;;;;;;;;5.20;100.00;99827.38;6153547;23;19913;-74
2024/03/01 06:55:20;;;;;;;;;;;;;;;5.23;100.00;99837.69;6152694;23;19947;-73
2024/03/01 06:57:45;;;;;;;;;;;;;;;5.27;100.00;99836.31;6155688;23;19912;-73
2024/03/01 07:00:14;;;;;;;;;;;;;;;5.23;100.00;99836.84;6154424;23;19939;-74
2024/03/01 07:02:40;;;;;;;;;;;;;;;5.23;100.00;99836.84;6154287;23;19936;-76
2024/03/01 07:05:05;;;;;;;;;;;;;;;5.21;100.00;99842.38;6156306;23;19912;-75
2024/03/01 07:07:31;;;;;;;;;;;;;;;5.34;100.00;99843.56;6154510;23;19923;-76
2024/03/01 07:09:56;;;;;;;;;;;;;;;5.23;100.00;99843.03;6153294;23;19921;-76
2024/03/01 07:12:22;;;;;;;;;;;;;;;5.19;100.00;99841.75;6154117;23;19987;-75
2024/03/01 07:14:47;;;;;;;;;;;;;;;5.22;100.00;99849.38;6151105;23;19913;-78
2024/03/01 07:17:12;;;;;;;;;;;;;;;5.23;100.00;99852.84;6150743;23;19917;-77
2024/03/01 07:23:05;;;;;;;;;;;;;;;5.32;100.00;99855.25;6182145;23;19919;-77
2024/03/01 07:25:30;;;;;;;;;;;;;;;5.32;100.00;99862.44;6182602;23;19998;-77
2024/03/01 07:28:05;;;;;;;;;;;;;;;5.24;100.00;99863.38;6183163;23;20289;-77
2024/03/01 07:30:38;;;;;;;;;;;;;;;5.34;100.00;99859.56;6181776;23;20048;-77
2024/03/01 07:33:19;;;;;;;;;;;;;;;5.43;100.00;99861.13;6182630;23;19920;-78
2024/03/01 07:35:46;;;;;;;;;;;;;;;5.30;100.00;99870.59;6159219;23;20334;-78
2024/03/01 07:38:11;;;;;;;;;;;;;;;5.25;100.00;99878.38;6151217;23;19936;-80
2024/03/01 07:40:41;;;;;;;;;;;;;;;5.37;100.00;99883.22;6152188;23;19912;-75
2024/03/01 07:43:06;;;;;;;;;;;;;;;5.51;100.00;99881.53;6152675;23;20042;-77
2024/03/01 07:45:37;;;;;;;;;;;;;;;5.59;100.00;99892.94;6151343;23;19996;-77
2024/03/01 07:48:08;;;;;;;;;;;;;;;5.50;100.00;99883.38;6152308;23;19919;-78
2024/03/01 07:50:33;;;;;;;;;;;;;;;5.74;100.00;99892.06;6152387;23;19912;-77
2024/03/01 07:53:02;;;;;;;;;;;;;;;5.63;100.00;99900.56;6150014;23;19917;-76
2024/03/01 07:55:36;;;;;;;;;;;;;;;5.81;100.00;99892.97;6151747;23;20366;-77
2024/03/01 07:58:01;;;;;;;;;;;;;;;5.70;100.00;99901.47;6152297;23;19913;-77
2024/03/01 08:00:26;;;;;;;;;;;;;;;5.75;100.00;99905.22;6151115;23;20282;-76
2024/03/01 08:02:58;;;;;;;;;;;;;;;5.86;100.00;99911.09;6151680;23;20318;-76
2024/03/01 08:05:24;;;;;;;;;;;;;;;5.78;100.00;99904.03;6126260;23;20024;-76
2024/03/01 08:07:49;;;;;;;;;;;;;;;5.77;100.00;99907.72;6152529;23;20342;-77
2024/03/01 08:10:15;;;;;;;;;;;;;;;5.60;100.00;99904.44;6152290;23;19968;-76
2024/03/01 08:12:43;;;;;;;;;;;;;;;5.72;100.00;99907.44;6151734;23;19919;-77
2024/03/01 08:15:09;;;;;;;;;;;;;;;5.97;100.00;99902.56;6151998;23;19911;-77
2024/03/01 08:17:37;;;;;;;;;;;;;;;5.91;100.00;99909.50;6128105;23;20252;-77
2024/03/01 08:20:06;;;;;;;;;;;;;;;6.00;100.00;99918.25;6160932;23;19944;-76
2024/03/01 08:22:31;;;;;;;;;;;;;;;6.02;100.00;99923.38;6155459;23;19940;-76
2024/03/01 08:24:57;;;;;;;;;;;;;;;6.11;100.00;99916.06;6152024;23;19931;-76
2024/03/01 08:27:27;;;;;;;;;;;;;;;6.24;100.00;99929.59;6126308;23;20070;-77
2024/03/01 08:29:53;;;;;;;;;;;;;;;6.17;100.00;99926.84;6151858;23;19921;-77
2024/03/01 08:32:18;;;;;;;;;;;;;;;5.92;100.00;99937.88;6125465;23;19939;-77
2024/03/01 08:34:47;;;;;;;;;;;;;;;5.87;100.00;99936.78;6151913;23;19921;-77
2024/03/01 08:37:14;;;;;;;;;;;;;;;5.98;99.81;99930.13;6126075;23;20223;-76
2024/03/01 08:39:40;;;;;;;;;;;;;;;5.92;100.00;99932.53;6125774;23;19924;-76
2024/03/01 08:42:05;;;;;;;;;;;;;;;5.91;99.92;99930.88;6152451;23;20002;-76
2024/03/01 08:44:48;;;;;;;;;;;;;;;5.84;100.00;99945.97;6150016;23;19916;-77
2024/03/01 08:47:21;;;;;;;;;;;;;;;5.96;100.00;99937.50;6158930;23;19913;-76
2024/03/01 08:49:51;;;;;;;;;;;;;;;5.97;100.00;99939.16;6128587;23;20365;-76
2024/03/01 08:52:35;;;;;;;;;;;;;;;5.99;100.00;99937.13;6151007;23;19913;-75
2024/03/01 08:55:16;;;;;;;;;;;;;;;5.98;100.00;99936.28;6150969;23;19916;-75
2024/03/01 08:57:41;;;;;;;;;;;;;;;6.03;100.00;99941.94;6151019;23;19916;-76
2024/03/01 09:00:39;;;;;;;;;;;;;;;6.01;100.00;99941.28;6151668;23;20225;-76
2024/03/01 09:03:09;;;;;;;;;;;;;;;6.00;100.00;99941.47;6158535;23;19940;-76
2024/03/01 09:05:36;;;;;;;;;;;;;;;5.96;100.00;99949.00;6182493;23;20285;-76
2024/03/01 09:08:01;;;;;;;;;;;;;;;5.93;100.00;99944.03;6154829;23;20218;-77
2024/03/01 09:10:27;;;;;;;;;;;;;;;5.91;100.00;99952.25;6181042;23;19955;-77
2024/03/01 09:12:53;;;;;;;;;;;;;;;5.88;100.00;99960.63;6190861;23;19974;-76
2024/03/01 09:15:21;;;;;;;;;;;;;;;5.95;100.00;99952.69;6190350;23;19926;-76
2024/03/01 09:17:50;;;;;;;;;;;;;;;6.01;100.00;99967.16;6183624;23;19924;-76
2024/03/01 09:20:18;;;;;;;;;;;;;;;6.10;100.00;99962.53;6184977;23;20256;-76
2024/03/01 09:22:43;;;;;;;;;;;;;;;6.22;100.00;99964.50;6156496;23;19917;-76
2024/03/01 09:25:28;;;;;;;;;;;;;;;6.41;100.00;99969.44;6184903;23;19946;-75
2024/03/01 09:27:53;;;;;;;;;;;;;;;6.75;100.00;99970.53;6183793;23;19991;-75
2024/03/01 09:30:19;;;;;;;;;;;;;;;7.15;100.00;99970.81;6184638;23;20322;-76
2024/03/01 09:32:46;;;;;;;;;;;;;;;8.02;94.15;99967.72;6159473;23;20415;-76
2024/03/01 09:35:11;;;;;;;;;;;;;;;8.25;88.43;99971.88;6160557;23;20250;-76
2024/03/01 09:37:37;;;;;;;;;;;;;;;8.09;87.60;99975.78;6183710;23;19913;-76
2024/03/01 09:40:03;;;;;;;;;;;;;;;7.94;83.84;99976.78;6193600;23;19936;-76
2024/03/01 09:42:33;;;;;;;;;;;;;;;7.50;84.67;99978.81;6168429;23;19917;-76
2024/03/01 09:44:58;;;;;;;;;;;;;;;7.47;86.32;99975.72;6184194;23;19912;-77
2024/03/01 09:47:24;;;;;;;;;;;;;;;7.38;85.71;99973.22;6185729;23;19918;-77
2024/03/01 09:49:54;;;;;;;;;;;;;;;7.23;87.57;99972.53;6185023;23;19916;-77
2024/03/01 09:52:33;;;;;;;;;;;;;;;7.19;89.46;99980.09;6157722;23;19952;-77
2024/03/01 09:55:04;;;;;;;;;;;;;;;7.18;91.31;99983.00;6159817;23;19912;-77
2024/03/01 09:57:31;;;;;;;;;;;;;;;7.42;92.04;99977.13;6157903;23;19991;-79
2024/03/01 10:00:07;;;;;;;;;;;;;;;7.48;90.76;99983.59;6182438;23;19916;-77
2024/03/01 10:02:38;;;;;;;;;;;;;;;7.79;89.94;99978.75;6183804;23;19938;-77
2024/03/01 10:05:07;;;;;;;;;;;;;;;8.06;88.44;99982.34;6183233;23;19916;-77
2024/03/01 10:07:51;;;;;;;;;;;;;;;8.06;86.63;99982.34;6182450;23;19919;-77
2024/03/01 10:10:23;;;;;;;;;;;;;;;8.16;84.77;99984.66;6183758;23;19995;-77
2024/03/01 10:13:08;;;;;;;;;;;;;;;8.42;84.25;99983.06;6154594;23;20450;-75
2024/03/01 10:15:42;;;;;;;;;;;;;;;8.57;83.62;99980.19;6181657;23;19994;-77
2024/03/01 10:18:12;;;;;;;;;;;;;;;8.33;84.36;99985.91;6183694;23;19912;-77
2024/03/01 10:20:56;;;;;;;;;;;;;;;8.14;85.99;99986.69;6156485;23;19913;-77
2024/03/01 10:23:40;;;;;;;;;;;;;;;8.01;84.96;99977.59;6183248;23;19912;-76
2024/03/01 10:26:12;;;;;;;;;;;;;;;7.90;82.37;99970.16;6183124;23;19912;-76
2024/03/01 10:28:59;;;;;;;;;;;;;;;7.85;81.42;99978.78;6156026;23;19912;-76
2024/03/01 10:31:27;;;;;;;;;;;;;;;7.99;79.74;99958.22;6183125;23;19916;-77
2024/03/01 10:33:53;;;;;;;;;;;;;;;8.04;79.88;99955.75;6183913;23;20241;-77
2024/03/01 10:36:28;;;;;;;;;;;;;;;8.06;79.59;99952.88;6155764;23;19924;-78
2024/03/01 10:39:09;;;;;;;;;;;;;;;8.37;78.33;99943.44;6156292;23;19912;-78
2024/03/01 10:41:50;;;;;;;;;;;;;;;8.57;78.53;99938.13;6175872;23;19924;-77
2024/03/01 10:44:20;;;;;;;;;;;;;;;8.72;74.70;99931.72;6182413;23;19912;-76
2024/03/01 10:50:06;;;;;;;;;;;;;;;9.11;74.95;99927.31;6091779;23;19973;-77
2024/03/01 10:52:43;;;;;;;;;;;;;;;9.02;73.69;99929.41;6182615;23;19963;-77
2024/03/01 10:55:20;;;;;;;;;;;;;;;8.70;74.52;99931.09;6182656;23;19924;-77
2024/03/01 10:58:05;;;;;;;;;;;;;;;8.57;75.93;99927.38;6176925;23;19929;-76
2024/03/01 11:00:46;;;;;;;;;;;;;;;8.45;76.37;99923.66;6183036;23;19917;-77
2024/03/01 11:03:33;;;;;;;;;;;;;;;8.65;76.99;99924.47;6150788;23;19936;-77
2024/03/01 11:06:34;;;;;;;;;;;;;;;8.96;75.67;99922.19;6182175;23;19916;-78
2024/03/01 11:09:35;;;;;;;;;;;;;;;9.30;75.07;99914.06;6178280;23;19943;-78
2024/03/01 11:12:27;;;;;;;;;;;;;;;9.45;72.24;99906.56;6159970;23;19936;-77
2024/03/01 11:15:11;;;;;;;;;;;;;;;9.33;69.11;99919.00;6179541;23;20210;-77
2024/03/01 11:17:37;;;;;;;;;;;;;;;9.70;67.70;99920.09;6182116;23;20386;-78
2024/03/01 11:20:13;;;;;;;;;;;;;;;9.88;67.77;99915.03;6182615;23;19912;-79
2024/03/01 11:23:09;;;;;;;;;;;;;;;10.53;64.03;99922.88;6155618;23;19991;-77
2024/03/01 11:26:06;;;;;;;;;;;;;;;10.39;60.26;99906.03;6182138;23;19912;-77
2024/03/01 11:28:41;;;;;;;;;;;;;;;10.53;62.40;99909.41;6032553;23;19914;-76
2024/03/01 11:31:24;;;;;;;;;;;;;;;11.38;58.20;99909.84;6036901;23;19966;-77
2024/03/01 11:33:53;;;;;;;;;;;;;;;12.16;56.01;99896.59;6155756;23;20230;-78
2024/03/01 11:36:37;;;;;;;;;;;;;;;12.85;53.11;99903.31;6139981;23;19944;-79
2024/03/01 11:39:14;;;;;;;;;;;;;;;13.55;50.63;99900.78;6152914;23;19919;-76
2024/03/01 11:44:44;;;;;;;;;;;;;;;13.48;51.65;99885.50;6167935;23;19943;-76
2024/03/01 11:47:10;;;;;;;;;;;;;;;14.58;49.03;99905.28;6130796;23;19991;-76
2024/03/01 11:50:00;;;;;;;;;;;;;;;14.60;47.76;99877.94;6183569;23;20344;-76
2024/03/01 11:52:44;;;;;;;;;;;;;;;14.48;47.61;99875.31;6181932;23;20321;-78
2024/03/01 11:55:09;;;;;;;;;;;;;;;14.80;46.99;99874.75;6196169;23;20334;-77
2024/03/01 11:57:38;;;;;;;;;;;;;;;14.53;46.53;99864.56;6188856;23;19919;-78
2024/03/01 12:00:30;;;;;;;;;;;;;;;14.80;47.20;99877.47;6183068;23;19917;-77
2024/03/01 12:03:14;;;;;;;;;;;;;;;15.90;44.71;99882.03;6129225;23;20255;-78
2024/03/01 12:05:57;;;;;;;;;;;;;;;15.87;43.49;99839.16;6181638;23;19916;-78
2024/03/01 12:08:41;;;;;;;;;;;;;;;15.46;43.73;99849.56;6182797;23;19974;-78
2024/03/01 12:11:14;;;;;;;;;;;;;;;15.10;44.26;99859.97;6183324;23;19919;-78
2024/03/01 12:13:41;;;;;;;;;;;;;;;15.01;43.66;99829.78;6155516;23;20274;-77
2024/03/01 12:16:18;;;;;;;;;;;;;;;15.35;43.67;99834.25;6183494;23;19912;-78
2024/03/01 12:18:55;;;;;;;;;;;;;;;15.51;43.96;99835.22;6156813;23;20452;-77
2024/03/01 12:21:39;;;;;;;;;;;;;;;15.15;44.63;99824.81;6158299;23;19912;-77
2024/03/01 12:24:20;;;;;;;;;;;;;;;15.59;44.41;99835.59;6197343;23;19915;-78
2024/03/01 12:26:45;;;;;;;;;;;;;;;15.95;44.04;99832.44;6185090;23;20318;-78
2024/03/01 12:29:18;;;;;;;;;;;;;;;16.82;42.07;99834.13;6182762;23;19908;-78
2024/03/01 12:32:06;;;;;;;;;;;;;;;16.93;40.50;99832.28;6157330;23;20426;-77
2024/03/01 12:34:48;;;;;;;;;;;;;;;16.61;40.99;99827.72;6156662;23;19912;-77
2024/03/01 12:37:43;;;;;;;;;;;;;;;16.60;41.75;99836.97;6155787;23;19920;-78
2024/03/01 12:40:21;;;;;;;;;;;;;;;16.70;41.34;99806.31;6150627;23;19946;-78
2024/03/01 12:42:55;;;;;;;;;;;;;;;17.07;40.87;99825.31;6182135;23;19974;-78
2024/03/01 12:48:07;;;;;;;;;;;;;;;16.66;41.25;99820.44;6180694;23;19920;-78
2024/03/01 12:50:51;;;;;;;;;;;;;;;16.15;42.68;99811.97;6192889;23;19920;-78
2024/03/01 12:53:44;;;;;;;;;;;;;;;15.76;44.61;99812.94;6182149;23;19935;-77
2024/03/01 12:59:12;;;;;;;;;;;;;;;17.16;41.08;99801.13;6176966;23;20222;-78
2024/03/01 13:02:00;;;;;;;;;;;;;;;16.50;40.55;99792.38;6183178;23;20123;-77
2024/03/01 13:04:44;;;;;;;;;;;;;;;16.05;41.59;99801.84;6183862;23;19912;-77
2024/03/01 13:07:12;;;;;;;;;;;;;;;15.63;42.85;99802.53;6183437;23;20194;-78
2024/03/01 13:09:48;;;;;;;;;;;;;;;15.79;42.83;99793.44;6184706;23;19926;-77
2024/03/01 13:12:19;;;;;;;;;;;;;;;14.53;45.23;99796.84;6184564;23;19913;-77
2024/03/01 13:15:13;;;;;;;;;;;;;;;13.73;47.33;99795.09;6158900;23;19912;-77
2024/03/01 13:17:51;;;;;;;;;;;;;;;12.59;49.82;99790.16;6196030;23;20244;-77
2024/03/01 13:20:36;;;;;;;;;;;;;;;12.02;52.85;99782.66;6188747;23;19947;-78
2024/03/01 13:23:20;;;;;;;;;;;;;;;11.82;54.38;99777.56;6156181;23;19919;-78
2024/03/01 13:25:53;;;;;;;;;;;;;;;11.78;53.56;99771.00;6183548;23;19995;-78
2024/03/01 13:28:23;;;;;;;;;;;;;;;11.62;54.32;99776.00;6182729;23;19971;-77
2024/03/01 13:30:48;;;;;;;;;;;;;;;11.33;55.21;99780.34;6182535;23;19927;-78
2024/03/01 13:33:27;;;;;;;;;;;;;;;10.98;54.86;99759.47;6158035;23;19916;-78
2024/03/01 13:36:28;;;;;;;;;;;;;;;10.64;57.26;99745.59;6175551;23;20167;-78
2024/03/01 13:39:15;;;;;;;;;;;;;;;10.57;57.89;99740.28;6151921;23;19927;-78
2024/03/01 13:41:49;;;;;;;;;;;;;;;10.40;58.41;99740.88;6151786;23;19916;-78
2024/03/01 13:44:14;;;;;;;;;;;;;;;10.50;57.39;99774.50;6124722;23;19936;-77
2024/03/01 13:47:18;;;;;;;;;;;;;;;10.48;59.09;99776.59;6153016;23;19971;-78
2024/03/01 13:50:05;;;;;;;;;;;;;;;10.41;58.82;99787.41;6030737;23;19918;-77
2024/03/01 13:52:32;;;;;;;;;;;;;;;10.34;57.34;99778.56;6032086;23;20118;-77
2024/03/01 13:54:59;;;;;;;;;;;;;;;10.38;57.59;99788.69;6107016;23;19915;-78
2024/03/01 13:57:24;;;;;;;;;;;;;;;10.41;57.92;99785.53;6151256;23;19912;-78